Terminal Aerodrome Forecast
Issued by NWS

Home | Current Version | Previous Version | Text Only | Print | Product List | Glossary On
Versions: 1 2 3 4 5 6 7 8 9 10 11 12 13 14 15 16 17 18
000
FTUS43 KILX 012300
TAFBMI
TAF
KBMI 012320Z 0200/0224 17010KT P6SM VCSH BKN070
     FM020100 VRB06KT 5SM SHRA BR VCTS OVC035CB
     FM021200 18012KT P6SM OVC040
     FM022100 19014KT P6SM VCTS OVC035CB=

USA.gov is the U.S. government's official web portal to all federal, state and local government web resources and services.